Time;durP1;ratioP1;P1;durP2;ratioP2;P2;SDS_P1;SDS_P2;PMS_P1;PMS_P2;Temp;Humidity;BMP_temperature;BMP_pressure;BME280_temperature;BME280_humidity;BME280_pressure;Samples;Min_cycle;Max_cycle;Signal;HPM_P1;HPM_P2
2022/09/04 00:00:07;;;;;;;4.22;1.33;;;;;;;;;;4952195;29;20268;-71
2022/09/04 00:02:52;;;;;;;3.28;1.30;;;;;;;;;;4952106;29;20023;-71
2022/09/04 00:05:56;;;;;;;2.83;1.27;;;;;;;;;;4952157;28;20047;-71
2022/09/04 00:08:40;;;;;;;6.50;2.42;;;;;;;;;;5012405;28;20025;-70
2022/09/04 00:11:12;;;;;;;3.58;1.40;;;;;;;;;;5010820;28;20076;-71
2022/09/04 00:13:47;;;;;;;7.07;1.20;;;;;;;;;;4975399;28;20126;-71
2022/09/04 00:16:21;;;;;;;2.83;1.20;;;;;;;;;;4951988;29;20037;-71
2022/09/04 00:19:01;;;;;;;3.25;1.40;;;;;;;;;;4951931;29;20094;-70
2022/09/04 00:21:34;;;;;;;3.90;1.52;;;;;;;;;;4954795;28;20035;-69
2022/09/04 00:24:04;;;;;;;3.05;1.20;;;;;;;;;;4952745;28;20023;-70
2022/09/04 00:26:51;;;;;;;4.28;1.45;;;;;;;;;;4951436;29;20042;-71
2022/09/04 00:29:24;;;;;;;4.28;1.15;;;;;;;;;;4937796;29;20102;-71
2022/09/04 00:31:57;;;;;;;2.35;1.30;;;;;;;;;;4952057;29;20023;-70
2022/09/04 00:34:46;;;;;;;4.28;1.38;;;;;;;;;;4951529;28;20128;-70
2022/09/04 00:37:15;;;;;;;5.22;1.20;;;;;;;;;;4951298;29;20027;-71
2022/09/04 00:39:54;;;;;;;3.00;1.20;;;;;;;;;;4951472;28;20016;-70
2022/09/04 00:42:35;;;;;;;4.60;1.70;;;;;;;;;;4951555;28;20031;-71
2022/09/04 00:45:16;;;;;;;2.10;1.25;;;;;;;;;;4951382;28;20097;-69
2022/09/04 00:48:03;;;;;;;2.53;1.45;;;;;;;;;;4951269;29;20055;-70
2022/09/04 00:50:42;;;;;;;6.47;1.58;;;;;;;;;;4951700;29;20023;-70
2022/09/04 00:53:25;;;;;;;14.35;1.83;;;;;;;;;;4951335;28;20028;-70
2022/09/04 00:56:10;;;;;;;4.20;1.40;;;;;;;;;;4951218;29;20042;-70
2022/09/04 00:58:53;;;;;;;7.53;1.25;;;;;;;;;;4950581;29;20031;-70
2022/09/04 01:01:24;;;;;;;9.73;1.58;;;;;;;;;;4951262;29;20031;-71
2022/09/04 01:03:54;;;;;;;4.13;1.17;;;;;;;;;;4934270;29;20038;-70
2022/09/04 01:06:31;;;;;;;2.08;1.33;;;;;;;;;;4933857;29;20495;-71
2022/09/04 01:09:02;;;;;;;4.60;1.50;;;;;;;;;;4951262;29;20473;-71
2022/09/04 01:11:47;;;;;;;3.20;1.35;;;;;;;;;;4931411;29;20027;-71
2022/09/04 01:14:33;;;;;;;3.72;1.65;;;;;;;;;;4950499;28;20044;-70
2022/09/04 01:17:05;;;;;;;4.35;1.75;;;;;;;;;;4951148;29;20024;-70
2022/09/04 01:19:48;;;;;;;3.63;1.48;;;;;;;;;;4951409;29;20027;-70
2022/09/04 01:22:35;;;;;;;4.30;1.40;;;;;;;;;;4952637;29;20110;-72
2022/09/04 01:25:10;;;;;;;3.75;1.60;;;;;;;;;;4950586;28;20053;-71
2022/09/04 01:27:39;;;;;;;6.65;1.40;;;;;;;;;;4950634;29;20042;-71
2022/09/04 01:30:06;;;;;;;6.70;1.60;;;;;;;;;;4950508;29;20042;-71
2022/09/04 01:32:51;;;;;;;4.20;1.30;;;;;;;;;;4950667;29;20031;-71
2022/09/04 01:35:25;;;;;;;7.38;1.73;;;;;;;;;;4950388;28;20027;-70
2022/09/04 01:37:51;;;;;;;5.13;1.45;;;;;;;;;;4949499;29;20074;-71
2022/09/04 01:40:34;;;;;;;2.97;1.25;;;;;;;;;;4950082;28;20024;-71
2022/09/04 01:43:03;;;;;;;5.10;1.40;;;;;;;;;;4950695;29;20023;-71
2022/09/04 01:45:49;;;;;;;2.45;1.55;;;;;;;;;;4950349;28;20035;-71
2022/09/04 01:48:17;;;;;;;6.50;1.70;;;;;;;;;;4960603;28;20519;-70
2022/09/04 01:50:45;;;;;;;4.80;1.50;;;;;;;;;;4950425;28;20035;-71
2022/09/04 01:53:27;;;;;;;5.55;1.38;;;;;;;;;;4933150;28;20035;-71
2022/09/04 01:56:08;;;;;;;2.45;1.52;;;;;;;;;;4951622;29;20030;-70
2022/09/04 01:58:37;;;;;;;5.03;1.63;;;;;;;;;;4952602;28;20019;-70
2022/09/04 02:01:18;;;;;;;5.72;1.50;;;;;;;;;;4950132;28;20019;-71
2022/09/04 02:03:49;;;;;;;5.25;1.63;;;;;;;;;;4950225;28;20102;-70
2022/09/04 02:06:18;;;;;;;5.07;1.38;;;;;;;;;;4949789;29;20134;-70
2022/09/04 02:08:50;;;;;;;5.85;1.70;;;;;;;;;;4950237;28;20567;-70
2022/09/04 02:11:17;;;;;;;4.68;1.55;;;;;;;;;;4953405;28;20036;-70
2022/09/04 02:14:03;;;;;;;4.57;1.65;;;;;;;;;;4953210;28;20143;-71
2022/09/04 02:16:59;;;;;;;3.70;1.63;;;;;;;;;;4953501;29;20042;-71
2022/09/04 02:19:43;;;;;;;3.05;1.20;;;;;;;;;;4958335;28;20031;-70
2022/09/04 02:22:18;;;;;;;7.68;1.40;;;;;;;;;;4953619;29;20023;-71
2022/09/04 02:24:44;;;;;;;4.57;1.75;;;;;;;;;;4956126;28;20069;-70
2022/09/04 02:27:12;;;;;;;5.53;1.77;;;;;;;;;;4953327;29;20390;-70
2022/09/04 02:29:44;;;;;;;6.10;2.47;;;;;;;;;;4953698;29;20038;-71
2022/09/04 02:32:29;;;;;;;4.68;1.67;;;;;;;;;;4953225;29;20539;-71
2022/09/04 02:35:08;;;;;;;7.10;1.42;;;;;;;;;;4953038;28;20028;-70
2022/09/04 02:37:59;;;;;;;4.63;1.50;;;;;;;;;;4953032;29;20114;-71
2022/09/04 02:40:25;;;;;;;2.90;1.40;;;;;;;;;;4953254;29;20057;-72
2022/09/04 02:42:53;;;;;;;3.83;1.58;;;;;;;;;;4953099;29;20027;-71
2022/09/04 02:45:25;;;;;;;9.48;2.13;;;;;;;;;;4952364;28;20055;-71
2022/09/04 02:48:08;;;;;;;6.10;1.45;;;;;;;;;;4952780;28;20028;-71
2022/09/04 02:50:40;;;;;;;5.15;1.40;;;;;;;;;;4953168;29;20047;-71
2022/09/04 02:53:28;;;;;;;4.93;1.50;;;;;;;;;;4952744;28;20050;-71
2022/09/04 02:56:11;;;;;;;7.30;1.80;;;;;;;;;;4952749;29;20107;-71
2022/09/04 02:58:50;;;;;;;4.45;1.55;;;;;;;;;;4935706;29;20119;-71
2022/09/04 03:01:28;;;;;;;2.80;1.50;;;;;;;;;;4952764;28;20081;-70
2022/09/04 03:04:17;;;;;;;5.20;1.83;;;;;;;;;;4952601;28;20547;-70
2022/09/04 03:06:48;;;;;;;1.98;1.25;;;;;;;;;;4952505;28;20023;-70
2022/09/04 03:09:26;;;;;;;9.77;1.80;;;;;;;;;;4952747;28;20073;-71
2022/09/04 03:11:57;;;;;;;3.00;1.45;;;;;;;;;;4952691;29;20158;-71
2022/09/04 03:14:33;;;;;;;4.10;1.35;;;;;;;;;;4952579;28;20081;-71
2022/09/04 03:17:05;;;;;;;4.78;1.17;;;;;;;;;;4953026;29;20027;-71
2022/09/04 03:19:42;;;;;;;3.83;1.60;;;;;;;;;;4953245;29;20478;-75
2022/09/04 03:22:14;;;;;;;4.45;1.38;;;;;;;;;;4934789;29;20035;-71
2022/09/04 03:24:58;;;;;;;2.00;1.40;;;;;;;;;;4952605;28;20029;-72
2022/09/04 03:27:26;;;;;;;5.43;1.50;;;;;;;;;;4952806;28;20036;-72
2022/09/04 03:29:55;;;;;;;3.30;1.40;;;;;;;;;;4953113;29;20392;-72
2022/09/04 03:32:21;;;;;;;3.45;1.65;;;;;;;;;;4952628;29;20402;-72
2022/09/04 03:34:59;;;;;;;8.10;2.00;;;;;;;;;;4952233;28;20034;-73
2022/09/04 03:37:31;;;;;;;6.32;1.70;;;;;;;;;;4955163;29;20027;-73
2022/09/04 03:40:03;;;;;;;4.95;1.60;;;;;;;;;;4935223;29;20115;-72
2022/09/04 03:42:48;;;;;;;2.83;1.42;;;;;;;;;;4952310;28;20054;-73
2022/09/04 03:45:33;;;;;;;4.30;1.50;;;;;;;;;;4952229;28;20508;-73
2022/09/04 03:47:58;;;;;;;4.05;1.63;;;;;;;;;;4952244;29;20051;-72
2022/09/04 03:50:35;;;;;;;6.35;1.50;;;;;;;;;;4952259;28;20059;-72
2022/09/04 03:53:04;;;;;;;6.07;1.40;;;;;;;;;;4952085;28;20126;-73
2022/09/04 03:55:40;;;;;;;2.67;1.33;;;;;;;;;;4952034;28;20030;-71
2022/09/04 03:58:20;;;;;;;2.17;1.40;;;;;;;;;;4952061;29;20218;-71
2022/09/04 04:00:55;;;;;;;3.42;1.50;;;;;;;;;;4952098;28;20019;-70
2022/09/04 04:03:40;;;;;;;6.03;1.70;;;;;;;;;;4951939;28;20101;-70
2022/09/04 04:06:09;;;;;;;2.88;1.67;;;;;;;;;;4951847;29;20031;-70
2022/09/04 04:08:55;;;;;;;7.13;2.10;;;;;;;;;;4953240;28;20023;-70
2022/09/04 04:11:41;;;;;;;4.00;1.83;;;;;;;;;;4935128;29;20023;-71
2022/09/04 04:14:19;;;;;;;6.22;1.80;;;;;;;;;;4952768;28;20031;-70
2022/09/04 04:16:54;;;;;;;8.95;1.80;;;;;;;;;;4952364;28;20057;-71
2022/09/04 04:19:36;;;;;;;5.07;1.58;;;;;;;;;;4951907;29;20062;-71
2022/09/04 04:22:20;;;;;;;7.40;3.30;;;;;;;;;;4951697;28;20027;-70
2022/09/04 04:25:04;;;;;;;4.30;2.20;;;;;;;;;;4951627;28;20035;-71
2022/09/04 04:27:36;;;;;;;5.78;1.75;;;;;;;;;;4951433;29;20481;-70
2022/09/04 04:30:05;;;;;;;5.82;2.10;;;;;;;;;;4951674;29;20043;-70
2022/09/04 04:32:43;;;;;;;3.40;1.55;;;;;;;;;;4951602;29;20041;-70
2022/09/04 04:35:15;;;;;;;5.05;1.90;;;;;;;;;;4951989;28;20042;-71
2022/09/04 04:37:49;;;;;;;5.05;1.98;;;;;;;;;;4953705;29;20439;-70
2022/09/04 04:40:15;;;;;;;5.47;1.48;;;;;;;;;;4952082;29;20020;-70
2022/09/04 04:42:41;;;;;;;5.72;2.58;;;;;;;;;;4951775;29;20527;-70
2022/09/04 04:48:22;;;;;;;6.50;2.80;;;;;;;;;;4951724;29;20114;-70
2022/09/04 04:50:58;;;;;;;10.23;2.50;;;;;;;;;;4951324;28;20019;-71
2022/09/04 04:53:24;;;;;;;3.90;1.70;;;;;;;;;;4951205;28;20038;-71
2022/09/04 04:55:55;;;;;;;10.10;2.20;;;;;;;;;;4951002;29;20106;-73
2022/09/04 04:58:44;;;;;;;2.72;1.77;;;;;;;;;;4951577;28;20023;-70
2022/09/04 05:01:19;;;;;;;6.80;2.00;;;;;;;;;;4954425;28;20038;-71
2022/09/04 05:03:54;;;;;;;5.25;2.10;;;;;;;;;;4952524;28;20506;-72
2022/09/04 05:06:39;;;;;;;4.97;2.40;;;;;;;;;;4958022;29;20057;-71
2022/09/04 05:09:20;;;;;;;3.67;2.25;;;;;;;;;;4962566;29;20097;-71
2022/09/04 05:11:53;;;;;;;5.15;2.40;;;;;;;;;;4960936;29;20027;-71
2022/09/04 05:14:38;;;;;;;3.97;2.08;;;;;;;;;;4963473;28;20062;-71
2022/09/04 05:17:23;;;;;;;6.63;1.90;;;;;;;;;;4966408;28;20027;-70
2022/09/04 05:19:59;;;;;;;4.82;2.33;;;;;;;;;;4969819;29;20054;-70
2022/09/04 05:22:29;;;;;;;4.63;2.65;;;;;;;;;;4969013;28;20145;-71
2022/09/04 05:25:02;;;;;;;7.18;3.22;;;;;;;;;;4962306;28;20035;-71
2022/09/04 05:27:41;;;;;;;14.23;2.65;;;;;;;;;;4961245;28;20042;-70
2022/09/04 05:30:23;;;;;;;12.82;4.10;;;;;;;;;;4964330;29;20034;-72
2022/09/04 05:33:07;;;;;;;6.97;3.45;;;;;;;;;;4964695;28;20035;-71
2022/09/04 05:35:39;;;;;;;6.35;1.98;;;;;;;;;;4955032;28;20084;-69
2022/09/04 05:38:20;;;;;;;11.50;2.90;;;;;;;;;;4951085;29;20024;-71
2022/09/04 05:41:04;;;;;;;3.53;1.80;;;;;;;;;;4949937;29;20074;-69
2022/09/04 05:43:33;;;;;;;8.15;2.67;;;;;;;;;;4933133;28;20047;-72
2022/09/04 05:46:03;;;;;;;6.38;2.28;;;;;;;;;;4936183;29;20484;-70
2022/09/04 05:48:45;;;;;;;8.98;2.40;;;;;;;;;;4955645;29;20034;-71
2022/09/04 05:51:23;;;;;;;9.13;2.60;;;;;;;;;;4939814;28;20031;-70
2022/09/04 05:54:06;;;;;;;8.98;1.75;;;;;;;;;;4958120;28;20481;-72
2022/09/04 05:56:41;;;;;;;7.72;1.92;;;;;;;;;;4958283;28;20031;-70
2022/09/04 05:59:33;;;;;;;10.80;2.03;;;;;;;;;;4954086;29;20041;-69
2022/09/04 06:02:00;;;;;;;6.43;2.05;;;;;;;;;;4953934;29;20028;-70
2022/09/04 06:04:35;;;;;;;4.85;1.70;;;;;;;;;;4953916;28;20390;-70
2022/09/04 06:07:09;;;;;;;3.17;1.88;;;;;;;;;;4953751;28;20093;-71
2022/09/04 06:09:41;;;;;;;3.63;1.90;;;;;;;;;;4954019;28;20027;-72
2022/09/04 06:12:24;;;;;;;5.25;2.30;;;;;;;;;;4954077;28;20110;-70
2022/09/04 06:15:00;;;;;;;11.40;1.73;;;;;;;;;;4954384;28;20058;-70
2022/09/04 06:17:31;;;;;;;3.67;1.52;;;;;;;;;;4954244;28;20039;-69
2022/09/04 06:20:15;;;;;;;6.60;2.13;;;;;;;;;;4954260;29;20024;-70
2022/09/04 06:22:49;;;;;;;3.10;2.00;;;;;;;;;;4957628;29;20043;-72
2022/09/04 06:25:25;;;;;;;8.60;2.03;;;;;;;;;;4954806;28;20044;-71
2022/09/04 06:27:54;;;;;;;8.93;2.30;;;;;;;;;;4953926;28;20030;-71
2022/09/04 06:30:20;;;;;;;7.15;1.75;;;;;;;;;;4953945;29;20019;-72
2022/09/04 06:33:11;;;;;;;7.03;2.38;;;;;;;;;;4953441;28;20106;-71
2022/09/04 06:35:39;;;;;;;4.20;1.60;;;;;;;;;;4953706;28;20492;-71
2022/09/04 06:38:05;;;;;;;9.45;1.83;;;;;;;;;;4936864;29;20454;-71
2022/09/04 06:40:50;;;;;;;8.40;1.92;;;;;;;;;;4954325;29;20477;-71
2022/09/04 06:43:21;;;;;;;3.10;1.80;;;;;;;;;;4953391;28;20038;-71
2022/09/04 06:45:47;;;;;;;4.03;1.70;;;;;;;;;;4953679;29;20050;-71
2022/09/04 06:48:16;;;;;;;5.47;2.00;;;;;;;;;;4953051;29;20058;-70
2022/09/04 06:50:45;;;;;;;5.07;1.98;;;;;;;;;;4953273;28;20631;-71
2022/09/04 06:53:30;;;;;;;5.25;1.60;;;;;;;;;;4952846;28;20036;-72
2022/09/04 06:56:03;;;;;;;6.13;1.80;;;;;;;;;;4952621;28;20031;-69
2022/09/04 06:58:50;;;;;;;13.98;2.03;;;;;;;;;;4953287;28;20106;-70
2022/09/04 07:01:25;;;;;;;5.13;1.77;;;;;;;;;;4952933;28;20030;-70
2022/09/04 07:03:53;;;;;;;8.43;1.80;;;;;;;;;;4952986;28;20561;-70
2022/09/04 07:06:19;;;;;;;10.25;1.60;;;;;;;;;;4935963;28;20110;-71
2022/09/04 07:09:04;;;;;;;4.20;1.60;;;;;;;;;;4936021;28;20424;-70
2022/09/04 07:11:39;;;;;;;6.32;1.85;;;;;;;;;;4952761;28;20114;-70
2022/09/04 07:14:18;;;;;;;5.43;1.73;;;;;;;;;;4952449;28;20024;-70
2022/09/04 07:17:03;;;;;;;9.05;2.97;;;;;;;;;;4952735;29;20480;-71
2022/09/04 07:19:31;;;;;;;;;;;;;;;;;;4953494;28;20476;-70
2022/09/04 07:22:00;;;;;;;9.25;2.10;;;;;;;;;;4953433;28;19956;-69
2022/09/04 07:24:45;;;;;;;4.72;2.40;;;;;;;;;;4952687;28;20035;-71
2022/09/04 07:27:12;;;;;;;;;;;;;;;;;;4953065;28;20165;-69
2022/09/04 07:29:49;;;;;;;8.55;2.10;;;;;;;;;;4952518;29;19906;-71
2022/09/04 07:32:36;;;;;;;4.72;2.38;;;;;;;;;;4952271;29;20043;-70
2022/09/04 07:35:20;;;;;;;4.78;2.40;;;;;;;;;;4951910;28;20130;-70
2022/09/04 07:37:57;;;;;;;6.80;2.13;;;;;;;;;;4952980;29;20479;-71
2022/09/04 07:40:26;;;;;;;7.82;2.50;;;;;;;;;;4952782;29;20137;-72
2022/09/04 07:42:59;;;;;;;13.70;2.97;;;;;;;;;;4952512;28;20542;-70
2022/09/04 07:45:25;;;;;;;14.38;2.75;;;;;;;;;;4952194;28;20027;-71
2022/09/04 07:47:56;;;;;;;6.00;2.50;;;;;;;;;;4952394;29;20157;-69
2022/09/04 07:50:25;;;;;;;4.82;2.33;;;;;;;;;;4952657;29;20050;-70
2022/09/04 07:52:54;;;;;;;8.98;2.10;;;;;;;;;;4952307;29;20042;-70
2022/09/04 07:55:20;;;;;;;9.35;2.33;;;;;;;;;;4951919;28;20436;-72
2022/09/04 07:57:52;;;;;;;6.60;2.80;;;;;;;;;;4952086;29;20055;-71
2022/09/04 08:00:21;;;;;;;9.48;2.65;;;;;;;;;;4952415;29;20077;-70
2022/09/04 08:03:10;;;;;;;4.65;2.75;;;;;;;;;;4953079;28;20027;-69
2022/09/04 08:05:39;;;;;;;7.68;2.75;;;;;;;;;;4952029;29;20029;-71
2022/09/04 08:08:18;;;;;;;5.63;2.78;;;;;;;;;;4952086;29;20024;-70
2022/09/04 08:10:44;;;;;;;6.75;2.63;;;;;;;;;;4954407;28;20102;-69
2022/09/04 08:13:13;;;;;;;5.05;2.58;;;;;;;;;;4951628;28;20552;-72
2022/09/04 08:15:41;;;;;;;11.18;3.65;;;;;;;;;;4950890;29;20020;-72
2022/09/04 08:18:18;;;;;;;5.80;2.95;;;;;;;;;;4951327;29;20172;-73
2022/09/04 08:20:48;;;;;;;6.78;2.90;;;;;;;;;;4945996;29;20042;-72
2022/09/04 08:23:32;;;;;;;10.60;2.58;;;;;;;;;;4942233;28;20062;-70
2022/09/04 08:26:13;;;;;;;7.85;2.88;;;;;;;;;;4954849;28;20046;-70
2022/09/04 08:28:59;;;;;;;12.30;3.10;;;;;;;;;;4949904;29;20032;-71
2022/09/04 08:31:28;;;;;;;5.57;2.60;;;;;;;;;;4951300;28;20027;-70
2022/09/04 08:34:12;;;;;;;9.07;2.92;;;;;;;;;;4951426;28;20106;-72
2022/09/04 08:36:52;;;;;;;9.75;3.05;;;;;;;;;;4950858;28;20031;-71
2022/09/04 08:39:33;;;;;;;6.07;2.53;;;;;;;;;;4950440;28;20205;-70
2022/09/04 08:42:03;;;;;;;11.88;4.03;;;;;;;;;;4950546;28;20464;-71
2022/09/04 08:44:29;;;;;;;14.23;3.80;;;;;;;;;;4950642;28;20106;-72
2022/09/04 08:47:21;;;;;;;6.82;2.58;;;;;;;;;;4950266;28;20115;-70
2022/09/04 08:49:47;;;;;;;7.28;3.03;;;;;;;;;;4950623;28;20031;-70
2022/09/04 08:52:19;;;;;;;7.03;2.67;;;;;;;;;;4950340;28;20023;-71
2022/09/04 08:54:56;;;;;;;6.10;3.05;;;;;;;;;;4950006;28;20038;-71
2022/09/04 08:57:22;;;;;;;7.80;3.20;;;;;;;;;;4949792;28;20114;-71
2022/09/04 08:59:57;;;;;;;6.80;3.25;;;;;;;;;;4950157;28;20099;-69
2022/09/04 09:02:42;;;;;;;8.05;3.00;;;;;;;;;;4948696;29;20530;-69
2022/09/04 09:05:26;;;;;;;7.47;2.90;;;;;;;;;;4949927;28;20737;-71
2022/09/04 09:08:11;;;;;;;6.75;2.80;;;;;;;;;;4949935;28;20472;-69
2022/09/04 09:10:44;;;;;;;7.50;2.65;;;;;;;;;;4950219;28;20059;-71
2022/09/04 09:13:41;;;;;;;16.90;3.13;;;;;;;;;;4950057;28;20043;-70
2022/09/04 09:16:20;;;;;;;5.55;3.05;;;;;;;;;;4949642;28;20124;-70
2022/09/04 09:18:56;;;;;;;4.32;2.88;;;;;;;;;;4949375;28;20438;-70
2022/09/04 09:21:40;;;;;;;7.88;2.70;;;;;;;;;;4950985;28;20435;-69
2022/09/04 09:24:07;;;;;;;;;;;;;;;;;;4951668;28;20062;-71
2022/09/04 09:26:35;;;;;;;5.05;3.00;;;;;;;;;;4953807;28;19907;-71
2022/09/04 09:29:16;;;;;;;9.80;2.80;;;;;;;;;;4957909;28;20047;-71
2022/09/04 09:32:12;;;;;;;5.65;2.65;;;;;;;;;;4951471;28;20062;-72
2022/09/04 09:34:38;;;;;;;9.23;2.83;;;;;;;;;;4950240;28;20505;-70
2022/09/04 09:37:26;;;;;;;6.45;2.80;;;;;;;;;;4949767;28;20031;-71
2022/09/04 09:39:58;;;;;;;8.18;2.85;;;;;;;;;;4949894;28;20024;-71
2022/09/04 09:42:27;;;;;;;6.43;2.72;;;;;;;;;;4957480;28;20538;-72
2022/09/04 09:45:12;;;;;;;8.13;2.92;;;;;;;;;;4950261;28;20024;-72
2022/09/04 09:47:38;;;;;;;6.90;3.17;;;;;;;;;;4949654;28;20042;-70
2022/09/04 09:50:22;;;;;;;4.72;2.58;;;;;;;;;;4949750;28;20028;-70
2022/09/04 09:52:51;;;;;;;9.48;2.85;;;;;;;;;;4949859;28;20031;-71
2022/09/04 09:55:36;;;;;;;5.28;2.63;;;;;;;;;;4949916;28;20051;-70
2022/09/04 09:58:02;;;;;;;5.95;3.10;;;;;;;;;;4949834;28;20102;-71
2022/09/04 10:00:45;;;;;;;9.57;3.10;;;;;;;;;;4949638;28;20460;-70
2022/09/04 10:03:29;;;;;;;4.55;2.35;;;;;;;;;;4949585;28;20500;-71
2022/09/04 10:06:12;;;;;;;4.88;2.80;;;;;;;;;;4950148;28;20054;-74
2022/09/04 10:08:53;;;;;;;6.32;3.05;;;;;;;;;;4952346;28;20106;-73
2022/09/04 10:11:38;;;;;;;7.90;2.50;;;;;;;;;;4958948;28;20031;-74
2022/09/04 10:14:07;;;;;;;6.13;2.75;;;;;;;;;;4961405;28;20575;-72
2022/09/04 10:16:51;;;;;;;6.57;2.85;;;;;;;;;;4957732;28;20078;-71
2022/09/04 10:19:17;;;;;;;;;;;;;;;;;;4957829;28;20030;-71
2022/09/04 10:21:49;;;;;;;9.15;2.55;;;;;;;;;;4954967;28;19945;-71
2022/09/04 10:24:34;;;;;;;9.60;2.92;;;;;;;;;;4954219;28;20083;-71
2022/09/04 10:27:00;;;;;;;;;;;;;;;;;;4958763;28;20034;-70
2022/09/04 10:29:27;;;;;;;6.00;2.63;;;;;;;;;;4948328;28;19910;-70
2022/09/04 10:32:01;;;;;;;4.22;2.70;;;;;;;;;;4952296;28;20047;-70
2022/09/04 10:34:55;;;;;;;7.93;2.60;;;;;;;;;;4952737;28;20077;-75
2022/09/04 10:37:27;;;;;;;7.43;2.88;;;;;;;;;;4952728;28;20115;-70
2022/09/04 10:42:50;;;;;;;4.70;2.80;;;;;;;;;;4955120;29;20546;-74
2022/09/04 10:45:21;;;;;;;7.20;3.67;;;;;;;;;;4953705;28;20534;-72
2022/09/04 10:47:51;;;;;;;3.65;2.22;;;;;;;;;;4952405;28;20032;-69
2022/09/04 10:50:23;;;;;;;8.23;2.88;;;;;;;;;;4952231;28;20023;-70
2022/09/04 10:52:52;;;;;;;9.23;2.75;;;;;;;;;;4951126;29;20038;-70
2022/09/04 10:55:37;;;;;;;8.27;2.70;;;;;;;;;;4952438;28;20023;-73
2022/09/04 10:58:32;;;;;;;7.30;2.30;;;;;;;;;;4952626;28;20040;-71
2022/09/04 11:01:02;;;;;;;4.35;2.47;;;;;;;;;;4956389;28;20081;-71
2022/09/04 11:03:37;;;;;;;6.22;2.63;;;;;;;;;;4952265;28;20582;-71
2022/09/04 11:06:25;;;;;;;4.78;2.25;;;;;;;;;;4951917;28;20157;-71
2022/09/04 11:09:13;;;;;;;6.90;2.63;;;;;;;;;;4951739;28;20031;-70
2022/09/04 11:12:04;;;;;;;13.18;3.00;;;;;;;;;;4958517;28;20485;-71
2022/09/04 11:14:48;;;;;;;5.47;2.53;;;;;;;;;;4954445;28;20072;-70
2022/09/04 11:17:33;;;;;;;4.05;2.65;;;;;;;;;;4952521;28;20027;-70
2022/09/04 11:19:59;;;;;;;4.70;2.60;;;;;;;;;;4952963;28;20027;-72
2022/09/04 11:22:44;;;;;;;12.90;2.85;;;;;;;;;;4952843;28;20388;-70
2022/09/04 11:25:23;;;;;;;7.40;2.50;;;;;;;;;;4952375;28;20085;-71
2022/09/04 11:28:03;;;;;;;10.48;2.85;;;;;;;;;;4952419;28;20536;-70
2022/09/04 11:30:50;;;;;;;5.05;2.35;;;;;;;;;;4952288;28;20035;-71
2022/09/04 11:33:16;;;;;;;4.38;2.22;;;;;;;;;;4952358;28;20027;-72
2022/09/04 11:35:59;;;;;;;4.88;2.20;;;;;;;;;;4954779;28;20020;-71
2022/09/04 11:38:28;;;;;;;9.43;2.47;;;;;;;;;;4954553;28;20028;-71
2022/09/04 11:41:14;;;;;;;6.95;2.53;;;;;;;;;;4952498;28;20027;-77
2022/09/04 11:43:52;;;;;;;7.97;2.40;;;;;;;;;;4951732;28;20024;-71
2022/09/04 11:46:21;;;;;;;7.28;2.35;;;;;;;;;;4952071;28;20481;-71
2022/09/04 11:49:08;;;;;;;6.10;2.67;;;;;;;;;;4952258;28;20042;-71
2022/09/04 11:51:52;;;;;;;4.97;2.83;;;;;;;;;;4951940;29;20019;-70
2022/09/04 11:54:18;;;;;;;;;;;;;;;;;;4958032;28;20028;-72
2022/09/04 11:56:49;;;;;;;6.30;2.60;;;;;;;;;;4958010;29;19945;-71
2022/09/04 11:59:33;;;;;;;4.32;2.25;;;;;;;;;;4960464;28;20031;-72
2022/09/04 12:02:18;;;;;;;4.43;2.35;;;;;;;;;;4959986;29;20388;-71
2022/09/04 12:04:59;;;;;;;6.50;2.60;;;;;;;;;;4970633;28;20035;-71
2022/09/04 12:07:32;;;;;;;8.82;2.30;;;;;;;;;;4951759;28;20101;-72
2022/09/04 12:10:12;;;;;;;5.20;2.47;;;;;;;;;;4951849;28;20034;-72
2022/09/04 12:12:44;;;;;;;4.13;2.10;;;;;;;;;;4951699;28;20081;-71
2022/09/04 12:15:10;;;;;;;4.85;2.47;;;;;;;;;;4952478;28;20106;-71
2022/09/04 12:17:55;;;;;;;9.52;2.60;;;;;;;;;;4951774;28;20507;-73
2022/09/04 12:20:27;;;;;;;9.13;2.20;;;;;;;;;;4950618;29;20026;-74
2022/09/04 12:23:12;;;;;;;3.30;2.17;;;;;;;;;;4952417;28;20549;-71
2022/09/04 12:25:56;;;;;;;6.20;2.28;;;;;;;;;;4951974;28;20028;-72
2022/09/04 12:28:22;;;;;;;8.15;2.00;;;;;;;;;;4951787;28;20418;-71
2022/09/04 12:31:07;;;;;;;3.47;2.50;;;;;;;;;;4951479;28;20023;-72
2022/09/04 12:33:45;;;;;;;3.55;2.42;;;;;;;;;;4951471;28;20081;-70
2022/09/04 12:36:13;;;;;;;7.53;2.33;;;;;;;;;;4952299;28;20049;-71
2022/09/04 12:38:39;;;;;;;2.90;2.10;;;;;;;;;;4953278;28;20081;-72
2022/09/04 12:41:15;;;;;;;4.07;2.22;;;;;;;;;;4951567;28;20023;-72
2022/09/04 12:43:50;;;;;;;10.13;2.25;;;;;;;;;;4955057;28;20024;-71
2022/09/04 12:46:22;;;;;;;3.30;2.10;;;;;;;;;;4951861;28;20031;-71
2022/09/04 12:49:00;;;;;;;5.68;2.35;;;;;;;;;;4951515;28;20058;-71
2022/09/04 12:51:34;;;;;;;6.25;2.70;;;;;;;;;;4952810;28;20023;-72
2022/09/04 12:54:10;;;;;;;9.98;2.40;;;;;;;;;;4962919;28;20054;-72
2022/09/04 12:56:40;;;;;;;6.35;2.63;;;;;;;;;;4969631;28;20042;-72
2022/09/04 12:59:13;;;;;;;4.82;2.58;;;;;;;;;;4951597;29;20431;-72
2022/09/04 13:01:57;;;;;;;6.93;2.78;;;;;;;;;;4951347;28;20499;-72
2022/09/04 13:04:30;;;;;;;8.98;3.03;;;;;;;;;;4949171;28;20031;-72
2022/09/04 13:07:03;;;;;;;3.47;2.28;;;;;;;;;;4952196;29;20031;-71
2022/09/04 13:09:32;;;;;;;3.70;1.95;;;;;;;;;;4952007;29;20038;-73
2022/09/04 13:12:03;;;;;;;4.32;2.42;;;;;;;;;;4950857;29;20058;-72
2022/09/04 13:14:41;;;;;;;4.15;2.55;;;;;;;;;;4951194;28;20037;-71
2022/09/04 13:17:13;;;;;;;10.50;3.33;;;;;;;;;;4950773;29;20489;-70
2022/09/04 13:19:45;;;;;;;6.47;2.38;;;;;;;;;;4933643;29;20020;-71
2022/09/04 13:22:34;;;;;;;6.00;2.42;;;;;;;;;;4951865;29;20042;-72
2022/09/04 13:25:26;;;;;;;12.52;2.38;;;;;;;;;;4952379;28;20048;-70
2022/09/04 13:28:01;;;;;;;3.20;2.38;;;;;;;;;;4951757;29;20106;-71
2022/09/04 13:30:28;;;;;;;5.47;2.65;;;;;;;;;;4952390;29;20022;-74
2022/09/04 13:32:58;;;;;;;8.50;2.30;;;;;;;;;;4952148;29;20039;-71
2022/09/04 13:35:48;;;;;;;11.07;2.33;;;;;;;;;;4950699;28;20031;-71
2022/09/04 13:38:32;;;;;;;5.70;2.67;;;;;;;;;;4950786;29;20039;-70
2022/09/04 13:40:59;;;;;;;5.35;2.90;;;;;;;;;;4933485;29;20401;-71
2022/09/04 13:43:28;;;;;;;6.43;2.60;;;;;;;;;;4950705;28;20423;-71
2022/09/04 13:45:57;;;;;;;5.05;2.03;;;;;;;;;;4951477;29;20031;-71
2022/09/04 13:48:33;;;;;;;6.80;2.70;;;;;;;;;;4934647;29;20027;-71
2022/09/04 13:51:05;;;;;;;4.95;2.10;;;;;;;;;;4951503;29;20388;-71
2022/09/04 13:53:31;;;;;;;3.95;2.22;;;;;;;;;;4936493;29;20122;-72
2022/09/04 13:56:05;;;;;;;5.03;2.35;;;;;;;;;;4952866;29;20050;-71
2022/09/04 13:58:34;;;;;;;6.90;2.33;;;;;;;;;;4950501;29;20024;-71
2022/09/04 14:01:01;;;;;;;6.85;2.25;;;;;;;;;;4950449;29;20311;-72
2022/09/04 14:03:30;;;;;;;4.20;2.35;;;;;;;;;;4933422;28;20081;-72
2022/09/04 14:05:56;;;;;;;3.70;2.20;;;;;;;;;;4951841;28;20027;-71
2022/09/04 14:08:22;;;;;;;4.80;1.95;;;;;;;;;;4936607;29;20027;-71
2022/09/04 14:10:54;;;;;;;7.80;2.28;;;;;;;;;;4953627;29;20035;-75
2022/09/04 14:13:41;;;;;;;4.63;2.25;;;;;;;;;;4953972;28;20024;-73
2022/09/04 14:16:10;;;;;;;6.15;2.10;;;;;;;;;;4954006;29;20435;-73
2022/09/04 14:18:55;;;;;;;4.28;2.22;;;;;;;;;;4955676;29;20023;-73
2022/09/04 14:21:28;;;;;;;5.45;2.30;;;;;;;;;;4954716;29;20024;-74
2022/09/04 14:24:13;;;;;;;4.20;1.90;;;;;;;;;;4953775;28;20591;-74
2022/09/04 14:26:51;;;;;;;2.85;2.00;;;;;;;;;;4953478;29;20035;-74
2022/09/04 14:29:35;;;;;;;8.55;2.33;;;;;;;;;;4953767;29;20027;-72
2022/09/04 14:32:19;;;;;;;5.32;2.10;;;;;;;;;;4953787;29;20050;-72
2022/09/04 14:35:01;;;;;;;8.68;2.63;;;;;;;;;;4955866;28;20038;-73
2022/09/04 14:37:47;;;;;;;8.07;2.30;;;;;;;;;;4953608;29;20357;-72
2022/09/04 14:40:24;;;;;;;4.50;2.53;;;;;;;;;;4953609;29;20032;-73
2022/09/04 14:43:09;;;;;;;10.27;3.00;;;;;;;;;;4953458;29;20357;-72
2022/09/04 14:45:53;;;;;;;4.40;2.17;;;;;;;;;;4953006;29;20515;-74
2022/09/04 14:48:20;;;;;;;7.07;2.90;;;;;;;;;;4954714;29;20083;-73
2022/09/04 14:50:58;;;;;;;14.32;2.58;;;;;;;;;;4953246;29;20106;-73
2022/09/04 14:53:30;;;;;;;7.78;2.50;;;;;;;;;;4954152;28;20314;-71
2022/09/04 14:56:11;;;;;;;6.57;4.25;;;;;;;;;;4953070;29;20047;-74
2022/09/04 14:58:49;;;;;;;9.27;3.90;;;;;;;;;;4953571;29;20438;-73
2022/09/04 15:01:22;;;;;;;4.60;3.08;;;;;;;;;;4953966;29;20473;-74
2022/09/04 15:03:51;;;;;;;5.18;2.78;;;;;;;;;;4954496;28;20038;-71
2022/09/04 15:06:37;;;;;;;8.93;2.55;;;;;;;;;;4953635;29;20023;-72
2022/09/04 15:09:22;;;;;;;4.65;2.40;;;;;;;;;;4953782;28;20039;-72
2022/09/04 15:11:55;;;;;;;5.68;2.63;;;;;;;;;;4936506;29;20062;-71
2022/09/04 15:14:33;;;;;;;6.85;2.90;;;;;;;;;;4952964;28;20035;-72
2022/09/04 15:17:02;;;;;;;5.78;2.38;;;;;;;;;;4950636;29;20023;-71
2022/09/04 15:19:28;;;;;;;4.80;3.40;;;;;;;;;;4952574;29;20384;-73
2022/09/04 15:21:57;;;;;;;8.98;3.40;;;;;;;;;;4951824;29;20089;-71
2022/09/04 15:24:26;;;;;;;5.63;2.83;;;;;;;;;;4952125;28;20031;-73
2022/09/04 15:26:55;;;;;;;6.93;3.45;;;;;;;;;;4952179;29;20111;-72
2022/09/04 15:29:39;;;;;;;6.40;2.97;;;;;;;;;;4951582;29;20019;-73
2022/09/04 15:32:09;;;;;;;7.78;2.83;;;;;;;;;;4951441;29;20404;-72
2022/09/04 15:34:36;;;;;;;5.80;2.33;;;;;;;;;;4951546;28;20024;-71
2022/09/04 15:37:09;;;;;;;9.07;3.42;;;;;;;;;;4951225;29;20051;-75
2022/09/04 15:39:37;;;;;;;4.45;2.40;;;;;;;;;;4951835;29;20164;-74
2022/09/04 15:42:07;;;;;;;6.63;3.25;;;;;;;;;;4952313;29;20023;-73